sensor_id;sensor_type;location;lat;lon;timestamp;P1;durP1;ratioP1;P2;durP2;ratioP2
81716;SDS011;71269;44.108;3.074;2023-07-13T00:02:04;3.67;;;1.73;;
81716;SDS011;71269;44.108;3.074;2023-07-13T00:04:30;5.40;;;1.60;;
81716;SDS011;71269;44.108;3.074;2023-07-13T00:06:55;3.25;;;2.03;;
81716;SDS011;71269;44.108;3.074;2023-07-13T00:09:20;3.80;;;1.80;;
81716;SDS011;71269;44.108;3.074;2023-07-13T00:11:49;5.82;;;2.20;;
81716;SDS011;71269;44.108;3.074;2023-07-13T00:14:16;3.58;;;1.67;;
81716;SDS011;71269;44.108;3.074;2023-07-13T00:16:41;5.20;;;1.67;;
81716;SDS011;71269;44.108;3.074;2023-07-13T00:19:09;4.38;;;1.70;;
81716;SDS011;71269;44.108;3.074;2023-07-13T00:21:35;4.40;;;1.80;;
81716;SDS011;71269;44.108;3.074;2023-07-13T00:24:00;3.45;;;1.70;;
81716;SDS011;71269;44.108;3.074;2023-07-13T00:26:26;4.68;;;1.73;;
81716;SDS011;71269;44.108;3.074;2023-07-13T00:28:51;5.57;;;1.58;;
81716;SDS011;71269;44.108;3.074;2023-07-13T00:31:17;5.13;;;1.70;;
81716;SDS011;71269;44.108;3.074;2023-07-13T00:33:42;5.00;;;1.67;;
81716;SDS011;71269;44.108;3.074;2023-07-13T00:36:08;3.30;;;1.60;;
81716;SDS011;71269;44.108;3.074;2023-07-13T00:38:34;6.35;;;1.90;;
81716;SDS011;71269;44.108;3.074;2023-07-13T00:41:00;4.18;;;2.25;;
81716;SDS011;71269;44.108;3.074;2023-07-13T00:43:27;5.43;;;1.75;;
81716;SDS011;71269;44.108;3.074;2023-07-13T00:48:19;4.25;;;1.70;;
81716;SDS011;71269;44.108;3.074;2023-07-13T00:50:47;3.30;;;1.80;;
81716;SDS011;71269;44.108;3.074;2023-07-13T00:53:14;4.85;;;1.67;;
81716;SDS011;71269;44.108;3.074;2023-07-13T00:55:39;5.28;;;1.90;;
81716;SDS011;71269;44.108;3.074;2023-07-13T00:58:05;5.03;;;2.22;;
81716;SDS011;71269;44.108;3.074;2023-07-13T01:00:31;4.45;;;2.05;;
81716;SDS011;71269;44.108;3.074;2023-07-13T01:02:58;4.13;;;1.70;;
81716;SDS011;71269;44.108;3.074;2023-07-13T01:05:24;4.30;;;1.73;;
81716;SDS011;71269;44.108;3.074;2023-07-13T01:07:50;8.15;;;2.08;;
81716;SDS011;71269;44.108;3.074;2023-07-13T01:10:21;5.10;;;1.67;;
81716;SDS011;71269;44.108;3.074;2023-07-13T01:12:47;3.30;;;1.80;;
81716;SDS011;71269;44.108;3.074;2023-07-13T01:18:00;2.97;;;1.70;;
81716;SDS011;71269;44.108;3.074;2023-07-13T01:20:25;4.25;;;1.92;;
81716;SDS011;71269;44.108;3.074;2023-07-13T01:22:51;3.95;;;1.75;;
81716;SDS011;71269;44.108;3.074;2023-07-13T01:25:18;4.10;;;1.70;;
81716;SDS011;71269;44.108;3.074;2023-07-13T01:27:43;4.70;;;1.80;;
81716;SDS011;71269;44.108;3.074;2023-07-13T01:30:09;3.30;;;1.80;;
81716;SDS011;71269;44.108;3.074;2023-07-13T01:32:35;4.53;;;2.00;;
81716;SDS011;71269;44.108;3.074;2023-07-13T01:35:01;3.17;;;1.80;;
81716;SDS011;71269;44.108;3.074;2023-07-13T01:37:27;3.97;;;1.70;;
81716;SDS011;71269;44.108;3.074;2023-07-13T01:39:52;3.83;;;1.63;;
81716;SDS011;71269;44.108;3.074;2023-07-13T01:42:18;3.58;;;1.88;;
81716;SDS011;71269;44.108;3.074;2023-07-13T01:44:43;3.53;;;1.40;;
81716;SDS011;71269;44.108;3.074;2023-07-13T01:47:09;3.60;;;1.70;;
81716;SDS011;71269;44.108;3.074;2023-07-13T01:49:35;4.00;;;1.85;;
81716;SDS011;71269;44.108;3.074;2023-07-13T01:52:00;4.53;;;1.95;;
81716;SDS011;71269;44.108;3.074;2023-07-13T01:54:26;3.92;;;1.75;;
81716;SDS011;71269;44.108;3.074;2023-07-13T01:56:51;2.97;;;1.70;;
81716;SDS011;71269;44.108;3.074;2023-07-13T01:59:16;4.32;;;1.60;;
81716;SDS011;71269;44.108;3.074;2023-07-13T02:01:42;3.72;;;1.42;;
81716;SDS011;71269;44.108;3.074;2023-07-13T02:04:07;3.75;;;1.95;;
81716;SDS011;71269;44.108;3.074;2023-07-13T02:06:32;4.30;;;2.05;;
81716;SDS011;71269;44.108;3.074;2023-07-13T02:08:58;4.13;;;1.90;;
81716;SDS011;71269;44.108;3.074;2023-07-13T02:11:23;3.35;;;1.50;;
81716;SDS011;71269;44.108;3.074;2023-07-13T02:13:50;4.60;;;1.60;;
81716;SDS011;71269;44.108;3.074;2023-07-13T02:16:15;4.07;;;1.45;;
81716;SDS011;71269;44.108;3.074;2023-07-13T02:18:41;2.97;;;1.30;;
81716;SDS011;71269;44.108;3.074;2023-07-13T02:21:06;3.15;;;1.50;;
81716;SDS011;71269;44.108;3.074;2023-07-13T02:23:32;3.35;;;1.55;;
81716;SDS011;71269;44.108;3.074;2023-07-13T02:25:58;2.70;;;1.20;;
81716;SDS011;71269;44.108;3.074;2023-07-13T02:28:24;5.35;;;1.40;;
81716;SDS011;71269;44.108;3.074;2023-07-13T02:30:49;3.35;;;1.40;;
81716;SDS011;71269;44.108;3.074;2023-07-13T02:33:15;5.65;;;1.35;;
81716;SDS011;71269;44.108;3.074;2023-07-13T02:35:40;3.35;;;1.50;;
81716;SDS011;71269;44.108;3.074;2023-07-13T02:38:06;2.90;;;1.40;;
81716;SDS011;71269;44.108;3.074;2023-07-13T02:40:31;3.40;;;1.55;;
81716;SDS011;71269;44.108;3.074;2023-07-13T02:43:00;4.53;;;1.30;;
81716;SDS011;71269;44.108;3.074;2023-07-13T02:45:26;2.95;;;1.30;;
81716;SDS011;71269;44.108;3.074;2023-07-13T02:47:51;3.95;;;1.50;;
81716;SDS011;71269;44.108;3.074;2023-07-13T02:50:17;3.20;;;1.38;;
81716;SDS011;71269;44.108;3.074;2023-07-13T02:52:42;3.20;;;1.58;;
81716;SDS011;71269;44.108;3.074;2023-07-13T02:55:08;2.85;;;1.40;;
81716;SDS011;71269;44.108;3.074;2023-07-13T02:57:34;2.63;;;1.10;;
81716;SDS011;71269;44.108;3.074;2023-07-13T02:59:59;4.88;;;1.40;;
81716;SDS011;71269;44.108;3.074;2023-07-13T03:02:25;5.88;;;1.58;;
81716;SDS011;71269;44.108;3.074;2023-07-13T03:04:53;2.15;;;1.10;;
81716;SDS011;71269;44.108;3.074;2023-07-13T03:07:19;3.50;;;1.40;;
81716;SDS011;71269;44.108;3.074;2023-07-13T03:09:45;2.85;;;1.38;;
81716;SDS011;71269;44.108;3.074;2023-07-13T03:12:10;4.43;;;1.30;;
81716;SDS011;71269;44.108;3.074;2023-07-13T03:14:35;3.72;;;1.60;;
81716;SDS011;71269;44.108;3.074;2023-07-13T03:17:01;2.22;;;1.15;;
81716;SDS011;71269;44.108;3.074;2023-07-13T03:19:26;3.55;;;1.50;;
81716;SDS011;71269;44.108;3.074;2023-07-13T03:21:51;3.67;;;1.40;;
81716;SDS011;71269;44.108;3.074;2023-07-13T03:24:17;2.78;;;1.30;;
81716;SDS011;71269;44.108;3.074;2023-07-13T03:26:42;3.00;;;1.50;;
81716;SDS011;71269;44.108;3.074;2023-07-13T03:29:07;4.07;;;1.42;;
81716;SDS011;71269;44.108;3.074;2023-07-13T03:31:34;4.78;;;1.42;;
81716;SDS011;71269;44.108;3.074;2023-07-13T03:34:00;4.50;;;1.23;;
81716;SDS011;71269;44.108;3.074;2023-07-13T03:36:27;4.50;;;1.40;;
81716;SDS011;71269;44.108;3.074;2023-07-13T03:38:54;2.80;;;1.42;;
81716;SDS011;71269;44.108;3.074;2023-07-13T03:41:21;2.63;;;1.35;;
81716;SDS011;71269;44.108;3.074;2023-07-13T03:43:47;2.72;;;1.30;;
81716;SDS011;71269;44.108;3.074;2023-07-13T03:46:13;3.22;;;1.27;;
81716;SDS011;71269;44.108;3.074;2023-07-13T03:48:40;3.42;;;1.40;;
81716;SDS011;71269;44.108;3.074;2023-07-13T03:51:07;3.85;;;1.35;;
81716;SDS011;71269;44.108;3.074;2023-07-13T03:53:33;2.30;;;1.20;;
81716;SDS011;71269;44.108;3.074;2023-07-13T03:56:02;3.90;;;1.38;;
81716;SDS011;71269;44.108;3.074;2023-07-13T04:00:58;3.45;;;1.67;;
81716;SDS011;71269;44.108;3.074;2023-07-13T04:03:24;4.70;;;1.42;;
81716;SDS011;71269;44.108;3.074;2023-07-13T04:05:50;4.35;;;1.30;;
81716;SDS011;71269;44.108;3.074;2023-07-13T04:08:15;2.40;;;1.30;;
81716;SDS011;71269;44.108;3.074;2023-07-13T04:10:41;3.67;;;1.20;;
81716;SDS011;71269;44.108;3.074;2023-07-13T04:13:07;2.45;;;1.10;;
81716;SDS011;71269;44.108;3.074;2023-07-13T04:15:32;3.67;;;1.45;;
81716;SDS011;71269;44.108;3.074;2023-07-13T04:17:58;3.53;;;1.52;;
81716;SDS011;71269;44.108;3.074;2023-07-13T04:20:24;4.35;;;1.38;;
81716;SDS011;71269;44.108;3.074;2023-07-13T04:22:50;2.83;;;1.30;;
81716;SDS011;71269;44.108;3.074;2023-07-13T04:25:16;3.75;;;1.40;;
81716;SDS011;71269;44.108;3.074;2023-07-13T04:27:41;5.97;;;1.33;;
81716;SDS011;71269;44.108;3.074;2023-07-13T04:30:07;5.25;;;1.65;;
81716;SDS011;71269;44.108;3.074;2023-07-13T04:32:33;3.78;;;1.60;;
81716;SDS011;71269;44.108;3.074;2023-07-13T04:34:58;4.55;;;1.50;;
81716;SDS011;71269;44.108;3.074;2023-07-13T04:37:24;3.67;;;1.40;;
81716;SDS011;71269;44.108;3.074;2023-07-13T04:39:51;5.38;;;1.40;;
81716;SDS011;71269;44.108;3.074;2023-07-13T04:42:17;4.13;;;1.27;;
81716;SDS011;71269;44.108;3.074;2023-07-13T04:44:47;5.03;;;1.80;;
81716;SDS011;71269;44.108;3.074;2023-07-13T04:49:39;3.17;;;1.40;;
81716;SDS011;71269;44.108;3.074;2023-07-13T04:52:05;3.22;;;1.38;;
81716;SDS011;71269;44.108;3.074;2023-07-13T04:54:32;5.07;;;1.70;;
81716;SDS011;71269;44.108;3.074;2023-07-13T04:56:58;2.85;;;1.40;;
81716;SDS011;71269;44.108;3.074;2023-07-13T04:59:23;7.18;;;1.50;;
81716;SDS011;71269;44.108;3.074;2023-07-13T05:01:48;3.10;;;1.40;;
81716;SDS011;71269;44.108;3.074;2023-07-13T05:04:14;3.35;;;1.58;;
81716;SDS011;71269;44.108;3.074;2023-07-13T05:06:39;4.82;;;1.65;;
81716;SDS011;71269;44.108;3.074;2023-07-13T05:09:05;4.70;;;1.73;;
81716;SDS011;71269;44.108;3.074;2023-07-13T05:11:31;4.30;;;1.52;;
81716;SDS011;71269;44.108;3.074;2023-07-13T05:13:56;2.80;;;1.58;;
81716;SDS011;71269;44.108;3.074;2023-07-13T05:16:21;3.60;;;1.88;;
81716;SDS011;71269;44.108;3.074;2023-07-13T05:18:47;4.38;;;1.50;;
81716;SDS011;71269;44.108;3.074;2023-07-13T05:21:12;4.18;;;1.70;;
81716;SDS011;71269;44.108;3.074;2023-07-13T05:23:38;4.60;;;1.70;;
81716;SDS011;71269;44.108;3.074;2023-07-13T05:26:04;4.55;;;1.55;;
81716;SDS011;71269;44.108;3.074;2023-07-13T05:28:30;4.70;;;1.55;;
81716;SDS011;71269;44.108;3.074;2023-07-13T05:30:56;5.30;;;1.90;;
81716;SDS011;71269;44.108;3.074;2023-07-13T05:33:22;5.10;;;2.03;;
81716;SDS011;71269;44.108;3.074;2023-07-13T05:35:47;3.15;;;1.58;;
81716;SDS011;71269;44.108;3.074;2023-07-13T05:38:13;3.85;;;1.63;;
81716;SDS011;71269;44.108;3.074;2023-07-13T05:40:38;4.07;;;1.50;;
81716;SDS011;71269;44.108;3.074;2023-07-13T05:43:04;2.88;;;1.35;;
81716;SDS011;71269;44.108;3.074;2023-07-13T05:45:29;5.03;;;1.35;;
81716;SDS011;71269;44.108;3.074;2023-07-13T05:47:54;3.10;;;1.48;;
81716;SDS011;71269;44.108;3.074;2023-07-13T05:50:20;4.28;;;1.60;;
81716;SDS011;71269;44.108;3.074;2023-07-13T05:52:46;3.45;;;1.60;;
81716;SDS011;71269;44.108;3.074;2023-07-13T05:55:11;3.63;;;1.15;;
81716;SDS011;71269;44.108;3.074;2023-07-13T05:57:37;3.25;;;1.40;;
81716;SDS011;71269;44.108;3.074;2023-07-13T06:00:02;3.25;;;1.38;;
81716;SDS011;71269;44.108;3.074;2023-07-13T06:02:28;10.23;;;1.60;;
81716;SDS011;71269;44.108;3.074;2023-07-13T06:04:53;2.67;;;1.40;;
81716;SDS011;71269;44.108;3.074;2023-07-13T06:07:18;3.75;;;1.20;;
81716;SDS011;71269;44.108;3.074;2023-07-13T06:09:44;4.00;;;1.27;;
81716;SDS011;71269;44.108;3.074;2023-07-13T06:12:09;3.05;;;1.00;;
81716;SDS011;71269;44.108;3.074;2023-07-13T06:14:35;3.00;;;1.10;;
81716;SDS011;71269;44.108;3.074;2023-07-13T06:17:00;2.03;;;1.00;;
81716;SDS011;71269;44.108;3.074;2023-07-13T06:19:25;5.32;;;1.55;;
81716;SDS011;71269;44.108;3.074;2023-07-13T06:21:51;3.13;;;1.05;;
81716;SDS011;71269;44.108;3.074;2023-07-13T06:24:16;3.63;;;1.27;;
81716;SDS011;71269;44.108;3.074;2023-07-13T06:26:42;3.88;;;1.15;;
81716;SDS011;71269;44.108;3.074;2023-07-13T06:29:07;4.20;;;1.13;;
81716;SDS011;71269;44.108;3.074;2023-07-13T06:31:33;4.35;;;1.15;;
81716;SDS011;71269;44.108;3.074;2023-07-13T06:33:58;2.67;;;1.10;;
81716;SDS011;71269;44.108;3.074;2023-07-13T06:36:24;3.53;;;1.02;;
81716;SDS011;71269;44.108;3.074;2023-07-13T06:38:49;2.50;;;0.95;;
81716;SDS011;71269;44.108;3.074;2023-07-13T06:41:15;4.68;;;0.90;;
81716;SDS011;71269;44.108;3.074;2023-07-13T06:43:40;2.70;;;1.08;;
81716;SDS011;71269;44.108;3.074;2023-07-13T06:46:05;3.03;;;1.20;;
81716;SDS011;71269;44.108;3.074;2023-07-13T06:48:31;4.40;;;1.33;;
81716;SDS011;71269;44.108;3.074;2023-07-13T06:50:57;3.33;;;1.00;;
81716;SDS011;71269;44.108;3.074;2023-07-13T06:53:22;3.88;;;1.23;;
81716;SDS011;71269;44.108;3.074;2023-07-13T06:55:48;4.00;;;1.50;;
81716;SDS011;71269;44.108;3.074;2023-07-13T06:58:14;3.72;;;1.20;;
81716;SDS011;71269;44.108;3.074;2023-07-13T07:00:41;5.40;;;1.10;;
81716;SDS011;71269;44.108;3.074;2023-07-13T07:03:06;4.05;;;0.98;;
81716;SDS011;71269;44.108;3.074;2023-07-13T07:05:31;3.25;;;1.15;;
81716;SDS011;71269;44.108;3.074;2023-07-13T07:07:57;3.88;;;1.33;;
81716;SDS011;71269;44.108;3.074;2023-07-13T07:10:22;4.35;;;1.00;;
81716;SDS011;71269;44.108;3.074;2023-07-13T07:12:48;3.63;;;1.15;;
81716;SDS011;71269;44.108;3.074;2023-07-13T07:15:13;5.65;;;1.20;;
81716;SDS011;71269;44.108;3.074;2023-07-13T07:17:39;2.97;;;1.02;;
81716;SDS011;71269;44.108;3.074;2023-07-13T07:20:04;3.85;;;1.42;;
81716;SDS011;71269;44.108;3.074;2023-07-13T07:22:30;7.07;;;1.15;;
81716;SDS011;71269;44.108;3.074;2023-07-13T07:24:56;5.13;;;1.38;;
81716;SDS011;71269;44.108;3.074;2023-07-13T07:27:22;3.88;;;1.20;;
81716;SDS011;71269;44.108;3.074;2023-07-13T07:29:48;6.22;;;1.40;;
81716;SDS011;71269;44.108;3.074;2023-07-13T07:32:14;5.68;;;1.20;;
81716;SDS011;71269;44.108;3.074;2023-07-13T07:34:39;3.60;;;1.27;;
81716;SDS011;71269;44.108;3.074;2023-07-13T07:37:05;2.75;;;1.10;;
81716;SDS011;71269;44.108;3.074;2023-07-13T07:39:30;2.88;;;1.08;;
81716;SDS011;71269;44.108;3.074;2023-07-13T07:41:56;2.70;;;1.02;;
81716;SDS011;71269;44.108;3.074;2023-07-13T07:44:22;5.25;;;1.40;;
81716;SDS011;71269;44.108;3.074;2023-07-13T07:46:47;3.28;;;1.20;;
81716;SDS011;71269;44.108;3.074;2023-07-13T07:49:13;4.93;;;1.10;;
81716;SDS011;71269;44.108;3.074;2023-07-13T07:51:38;5.22;;;1.00;;
81716;SDS011;71269;44.108;3.074;2023-07-13T07:54:04;3.95;;;1.15;;
81716;SDS011;71269;44.108;3.074;2023-07-13T07:56:30;2.80;;;0.90;;
81716;SDS011;71269;44.108;3.074;2023-07-13T07:58:55;3.10;;;0.90;;
81716;SDS011;71269;44.108;3.074;2023-07-13T08:01:20;3.72;;;1.25;;
81716;SDS011;71269;44.108;3.074;2023-07-13T08:03:46;2.67;;;1.10;;
81716;SDS011;71269;44.108;3.074;2023-07-13T08:06:11;2.72;;;1.00;;
81716;SDS011;71269;44.108;3.074;2023-07-13T08:08:37;3.65;;;1.05;;
81716;SDS011;71269;44.108;3.074;2023-07-13T08:11:04;4.13;;;0.90;;
81716;SDS011;71269;44.108;3.074;2023-07-13T08:13:30;3.22;;;0.90;;
81716;SDS011;71269;44.108;3.074;2023-07-13T08:15:55;3.60;;;0.95;;
81716;SDS011;71269;44.108;3.074;2023-07-13T08:18:20;3.20;;;0.95;;
81716;SDS011;71269;44.108;3.074;2023-07-13T08:20:46;4.60;;;1.15;;
81716;SDS011;71269;44.108;3.074;2023-07-13T08:23:11;2.20;;;0.88;;
81716;SDS011;71269;44.108;3.074;2023-07-13T08:25:37;3.47;;;0.90;;
81716;SDS011;71269;44.108;3.074;2023-07-13T08:28:03;3.15;;;1.05;;
81716;SDS011;71269;44.108;3.074;2023-07-13T08:30:29;4.65;;;0.70;;
81716;SDS011;71269;44.108;3.074;2023-07-13T08:32:54;2.08;;;0.80;;
81716;SDS011;71269;44.108;3.074;2023-07-13T08:35:19;4.75;;;0.80;;
81716;SDS011;71269;44.108;3.074;2023-07-13T08:37:45;2.60;;;0.70;;
81716;SDS011;71269;44.108;3.074;2023-07-13T08:40:10;3.30;;;0.88;;
81716;SDS011;71269;44.108;3.074;2023-07-13T08:42:38;1.85;;;0.80;;
81716;SDS011;71269;44.108;3.074;2023-07-13T08:48:02;2.42;;;0.88;;
81716;SDS011;71269;44.108;3.074;2023-07-13T08:50:31;2.15;;;0.70;;
81716;SDS011;71269;44.108;3.074;2023-07-13T08:52:59;3.45;;;0.70;;
81716;SDS011;71269;44.108;3.074;2023-07-13T08:55:33;1.77;;;0.70;;
81716;SDS011;71269;44.108;3.074;2023-07-13T08:58:12;1.50;;;0.63;;
81716;SDS011;71269;44.108;3.074;2023-07-13T09:03:12;2.42;;;0.90;;
81716;SDS011;71269;44.108;3.074;2023-07-13T09:05:45;2.03;;;0.60;;
81716;SDS011;71269;44.108;3.074;2023-07-13T09:13:58;3.92;;;0.82;;
81716;SDS011;71269;44.108;3.074;2023-07-13T09:16:29;1.98;;;0.65;;
81716;SDS011;71269;44.108;3.074;2023-07-13T09:18:56;5.72;;;1.02;;
81716;SDS011;71269;44.108;3.074;2023-07-13T09:21:29;2.30;;;1.00;;
81716;SDS011;71269;44.108;3.074;2023-07-13T09:23:59;2.38;;;0.80;;
81716;SDS011;71269;44.108;3.074;2023-07-13T09:26:26;3.17;;;1.00;;
81716;SDS011;71269;44.108;3.074;2023-07-13T09:28:57;2.47;;;0.80;;
81716;SDS011;71269;44.108;3.074;2023-07-13T09:31:39;2.63;;;0.80;;
81716;SDS011;71269;44.108;3.074;2023-07-13T09:34:11;4.35;;;0.80;;
81716;SDS011;71269;44.108;3.074;2023-07-13T09:36:38;2.72;;;1.17;;
81716;SDS011;71269;44.108;3.074;2023-07-13T09:47:23;3.78;;;1.10;;
81716;SDS011;71269;44.108;3.074;2023-07-13T09:50:14;4.78;;;1.25;;
81716;SDS011;71269;44.108;3.074;2023-07-13T09:52:48;2.42;;;0.80;;
81716;SDS011;71269;44.108;3.074;2023-07-13T09:55:23;3.28;;;0.90;;
81716;SDS011;71269;44.108;3.074;2023-07-13T09:58:13;3.80;;;0.90;;
81716;SDS011;71269;44.108;3.074;2023-07-13T10:00:53;4.03;;;1.00;;
81716;SDS011;71269;44.108;3.074;2023-07-13T10:03:30;2.30;;;1.10;;
81716;SDS011;71269;44.108;3.074;2023-07-13T10:06:16;4.35;;;0.90;;
81716;SDS011;71269;44.108;3.074;2023-07-13T10:08:44;2.83;;;1.00;;
81716;SDS011;71269;44.108;3.074;2023-07-13T10:11:20;3.65;;;0.90;;
81716;SDS011;71269;44.108;3.074;2023-07-13T10:16:13;2.60;;;0.80;;
81716;SDS011;71269;44.108;3.074;2023-07-13T10:18:48;3.33;;;1.02;;
81716;SDS011;71269;44.108;3.074;2023-07-13T10:21:19;2.40;;;0.80;;
81716;SDS011;71269;44.108;3.074;2023-07-13T10:23:48;4.32;;;0.90;;
81716;SDS011;71269;44.108;3.074;2023-07-13T10:26:19;2.00;;;0.80;;
81716;SDS011;71269;44.108;3.074;2023-07-13T10:28:54;3.55;;;1.02;;
81716;SDS011;71269;44.108;3.074;2023-07-13T10:31:22;2.05;;;0.60;;
81716;SDS011;71269;44.108;3.074;2023-07-13T10:33:48;2.45;;;0.70;;
81716;SDS011;71269;44.108;3.074;2023-07-13T10:37:15;1.73;;;0.70;;
81716;SDS011;71269;44.108;3.074;2023-07-13T10:39:14;2.92;;;0.70;;
81716;SDS011;71269;44.108;3.074;2023-07-13T10:41:42;3.92;;;0.73;;
81716;SDS011;71269;44.108;3.074;2023-07-13T10:44:13;2.10;;;0.75;;
81716;SDS011;71269;44.108;3.074;2023-07-13T10:46:42;3.47;;;1.23;;
81716;SDS011;71269;44.108;3.074;2023-07-13T10:49:08;2.83;;;1.00;;
81716;SDS011;71269;44.108;3.074;2023-07-13T10:51:35;3.35;;;0.80;;
81716;SDS011;71269;44.108;3.074;2023-07-13T10:54:14;2.38;;;0.73;;
81716;SDS011;71269;44.108;3.074;2023-07-13T10:56:51;2.95;;;0.75;;
81716;SDS011;71269;44.108;3.074;2023-07-13T10:59:23;1.77;;;0.60;;
81716;SDS011;71269;44.108;3.074;2023-07-13T11:04:24;2.45;;;0.80;;
81716;SDS011;71269;44.108;3.074;2023-07-13T11:06:52;2.17;;;0.80;;
81716;SDS011;71269;44.108;3.074;2023-07-13T11:11:46;2.05;;;0.60;;
81716;SDS011;71269;44.108;3.074;2023-07-13T11:14:26;1.60;;;0.70;;
81716;SDS011;71269;44.108;3.074;2023-07-13T11:16:51;2.42;;;0.80;;
81716;SDS011;71269;44.108;3.074;2023-07-13T11:22:02;2.08;;;0.80;;
81716;SDS011;71269;44.108;3.074;2023-07-13T11:24:48;3.17;;;0.82;;
81716;SDS011;71269;44.108;3.074;2023-07-13T11:32:33;1.58;;;0.65;;
81716;SDS011;71269;44.108;3.074;2023-07-13T11:34:58;2.35;;;0.80;;
81716;SDS011;71269;44.108;3.074;2023-07-13T11:37:24;2.83;;;0.60;;
81716;SDS011;71269;44.108;3.074;2023-07-13T11:39:50;2.03;;;0.82;;
81716;SDS011;71269;44.108;3.074;2023-07-13T11:42:17;2.15;;;0.70;;
81716;SDS011;71269;44.108;3.074;2023-07-13T11:44:45;2.65;;;0.80;;
81716;SDS011;71269;44.108;3.074;2023-07-13T11:47:19;2.05;;;0.55;;
81716;SDS011;71269;44.108;3.074;2023-07-13T11:49:50;2.65;;;0.82;;
81716;SDS011;71269;44.108;3.074;2023-07-13T11:52:27;2.85;;;0.60;;
81716;SDS011;71269;44.108;3.074;2023-07-13T11:54:57;2.88;;;0.80;;
81716;SDS011;71269;44.108;3.074;2023-07-13T11:57:26;1.92;;;0.70;;
81716;SDS011;71269;44.108;3.074;2023-07-13T11:59:56;1.75;;;0.68;;
81716;SDS011;71269;44.108;3.074;2023-07-13T12:02:40;2.25;;;0.77;;
81716;SDS011;71269;44.108;3.074;2023-07-13T12:05:13;2.72;;;0.60;;
81716;SDS011;71269;44.108;3.074;2023-07-13T12:07:40;2.20;;;0.75;;
81716;SDS011;71269;44.108;3.074;2023-07-13T12:10:25;2.17;;;0.70;;
81716;SDS011;71269;44.108;3.074;2023-07-13T12:13:01;1.25;;;0.65;;
81716;SDS011;71269;44.108;3.074;2023-07-13T12:15:49;3.50;;;0.82;;
81716;SDS011;71269;44.108;3.074;2023-07-13T12:18:15;2.20;;;0.60;;
81716;SDS011;71269;44.108;3.074;2023-07-13T12:20:41;2.92;;;0.70;;
81716;SDS011;71269;44.108;3.074;2023-07-13T12:23:10;1.83;;;0.65;;
81716;SDS011;71269;44.108;3.074;2023-07-13T12:25:46;2.60;;;0.50;;
81716;SDS011;71269;44.108;3.074;2023-07-13T12:29:13;3.17;;;0.50;;
81716;SDS011;71269;44.108;3.074;2023-07-13T12:34:18;2.00;;;0.80;;
81716;SDS011;71269;44.108;3.074;2023-07-13T12:36:53;2.03;;;0.70;;
81716;SDS011;71269;44.108;3.074;2023-07-13T12:42:00;2.25;;;0.57;;
81716;SDS011;71269;44.108;3.074;2023-07-13T12:44:40;2.42;;;0.80;;
81716;SDS011;71269;44.108;3.074;2023-07-13T12:47:09;2.42;;;0.50;;
81716;SDS011;71269;44.108;3.074;2023-07-13T12:52:12;4.03;;;0.98;;
81716;SDS011;71269;44.108;3.074;2023-07-13T12:54:40;2.80;;;0.85;;
81716;SDS011;71269;44.108;3.074;2023-07-13T12:57:05;3.53;;;0.70;;
81716;SDS011;71269;44.108;3.074;2023-07-13T12:59:34;3.15;;;0.68;;
81716;SDS011;71269;44.108;3.074;2023-07-13T13:02:01;2.70;;;0.85;;
81716;SDS011;71269;44.108;3.074;2023-07-13T13:04:27;2.10;;;0.70;;
81716;SDS011;71269;44.108;3.074;2023-07-13T13:07:03;1.80;;;0.70;;
81716;SDS011;71269;44.108;3.074;2023-07-13T13:09:29;3.08;;;0.90;;
81716;SDS011;71269;44.108;3.074;2023-07-13T13:11:54;2.47;;;0.60;;
81716;SDS011;71269;44.108;3.074;2023-07-13T13:14:20;2.08;;;0.80;;
81716;SDS011;71269;44.108;3.074;2023-07-13T13:16:49;2.83;;;0.73;;
81716;SDS011;71269;44.108;3.074;2023-07-13T13:19:18;1.92;;;0.70;;
81716;SDS011;71269;44.108;3.074;2023-07-13T13:21:46;2.67;;;0.82;;
81716;SDS011;71269;44.108;3.074;2023-07-13T13:24:14;3.42;;;0.70;;
81716;SDS011;71269;44.108;3.074;2023-07-13T13:26:42;2.22;;;0.77;;
81716;SDS011;71269;44.108;3.074;2023-07-13T13:29:18;1.45;;;0.60;;
81716;SDS011;71269;44.108;3.074;2023-07-13T13:31:46;3.33;;;0.70;;
81716;SDS011;71269;44.108;3.074;2023-07-13T13:34:13;2.55;;;0.80;;
81716;SDS011;71269;44.108;3.074;2023-07-13T13:36:40;3.33;;;0.70;;
81716;SDS011;71269;44.108;3.074;2023-07-13T13:39:49;2.83;;;0.88;;
81716;SDS011;71269;44.108;3.074;2023-07-13T13:41:59;2.03;;;0.73;;
81716;SDS011;71269;44.108;3.074;2023-07-13T13:44:24;2.22;;;0.77;;
81716;SDS011;71269;44.108;3.074;2023-07-13T13:46:53;2.13;;;0.52;;
81716;SDS011;71269;44.108;3.074;2023-07-13T13:49:21;2.45;;;0.52;;
81716;SDS011;71269;44.108;3.074;2023-07-13T13:51:48;2.83;;;0.70;;
81716;SDS011;71269;44.108;3.074;2023-07-13T13:54:14;1.85;;;0.60;;
81716;SDS011;71269;44.108;3.074;2023-07-13T13:56:44;2.47;;;0.60;;
81716;SDS011;71269;44.108;3.074;2023-07-13T13:59:11;2.15;;;0.73;;
81716;SDS011;71269;44.108;3.074;2023-07-13T14:01:38;2.78;;;0.70;;
81716;SDS011;71269;44.108;3.074;2023-07-13T14:04:04;1.83;;;0.70;;
81716;SDS011;71269;44.108;3.074;2023-07-13T14:06:30;2.40;;;0.55;;
81716;SDS011;71269;44.108;3.074;2023-07-13T14:08:56;2.20;;;0.90;;
81716;SDS011;71269;44.108;3.074;2023-07-13T14:11:22;2.17;;;0.63;;
81716;SDS011;71269;44.108;3.074;2023-07-13T14:13:49;2.22;;;0.70;;
81716;SDS011;71269;44.108;3.074;2023-07-13T14:16:21;2.70;;;0.63;;
81716;SDS011;71269;44.108;3.074;2023-07-13T14:18:48;3.95;;;0.70;;
81716;SDS011;71269;44.108;3.074;2023-07-13T14:21:18;2.53;;;0.70;;
81716;SDS011;71269;44.108;3.074;2023-07-13T14:23:45;2.00;;;0.63;;
81716;SDS011;71269;44.108;3.074;2023-07-13T14:26:12;3.42;;;0.70;;
81716;SDS011;71269;44.108;3.074;2023-07-13T14:28:43;2.78;;;0.82;;
81716;SDS011;71269;44.108;3.074;2023-07-13T14:31:13;2.35;;;0.73;;
81716;SDS011;71269;44.108;3.074;2023-07-13T14:33:39;3.13;;;0.68;;
81716;SDS011;71269;44.108;3.074;2023-07-13T14:36:50;3.17;;;0.65;;
81716;SDS011;71269;44.108;3.074;2023-07-13T14:38:59;1.92;;;0.70;;
81716;SDS011;71269;44.108;3.074;2023-07-13T14:41:26;2.28;;;0.60;;
81716;SDS011;71269;44.108;3.074;2023-07-13T14:43:52;1.83;;;0.52;;
81716;SDS011;71269;44.108;3.074;2023-07-13T14:49:04;4.20;;;0.70;;
81716;SDS011;71269;44.108;3.074;2023-07-13T14:51:31;2.70;;;1.05;;
81716;SDS011;71269;44.108;3.074;2023-07-13T14:54:01;2.00;;;0.60;;
81716;SDS011;71269;44.108;3.074;2023-07-13T14:56:27;2.47;;;0.60;;
81716;SDS011;71269;44.108;3.074;2023-07-13T14:58:53;1.83;;;0.60;;
81716;SDS011;71269;44.108;3.074;2023-07-13T15:01:18;4.45;;;0.60;;
81716;SDS011;71269;44.108;3.074;2023-07-13T15:03:45;4.55;;;0.63;;
81716;SDS011;71269;44.108;3.074;2023-07-13T15:06:12;3.47;;;0.80;;
81716;SDS011;71269;44.108;3.074;2023-07-13T15:08:38;2.17;;;0.70;;
81716;SDS011;71269;44.108;3.074;2023-07-13T15:11:06;2.33;;;0.60;;
81716;SDS011;71269;44.108;3.074;2023-07-13T15:13:38;2.22;;;0.60;;
81716;SDS011;71269;44.108;3.074;2023-07-13T15:16:04;2.63;;;0.90;;
81716;SDS011;71269;44.108;3.074;2023-07-13T15:18:45;3.55;;;0.85;;
81716;SDS011;71269;44.108;3.074;2023-07-13T15:21:11;2.03;;;0.60;;
81716;SDS011;71269;44.108;3.074;2023-07-13T15:23:41;1.98;;;0.60;;
81716;SDS011;71269;44.108;3.074;2023-07-13T15:26:11;2.80;;;0.80;;
81716;SDS011;71269;44.108;3.074;2023-07-13T15:28:42;2.22;;;0.70;;
81716;SDS011;71269;44.108;3.074;2023-07-13T15:31:18;3.00;;;0.63;;
